createdAt,value
2022-08-18T00:01:00.840Z,10.60
2022-08-18T00:02:09.238Z,9.20
2022-08-18T00:03:27.250Z,10.00
2022-08-18T00:04:34.035Z,11.10
2022-08-18T00:05:21.361Z,9.70
2022-08-18T00:06:28.316Z,10.40
2022-08-18T00:07:32.154Z,11.50
2022-08-18T00:08:38.429Z,11.90
2022-08-18T00:09:38.841Z,9.30
2022-08-18T00:10:41.859Z,9.90
2022-08-18T00:11:45.649Z,8.40
2022-08-18T00:12:48.208Z,10.30
2022-08-18T00:13:50.649Z,9.70
2022-08-18T00:14:53.500Z,9.20
2022-08-18T00:15:55.746Z,10.18
2022-08-18T00:16:59.154Z,10.00
2022-08-18T00:18:01.919Z,9.90
2022-08-18T00:19:09.236Z,10.55
2022-08-18T00:21:23.866Z,10.30
2022-08-18T00:22:27.053Z,8.80
2022-08-18T00:23:31.196Z,10.90
2022-08-18T00:24:33.736Z,9.80
2022-08-18T00:25:37.112Z,10.20
2022-08-18T00:26:53.090Z,10.80
2022-08-18T00:27:55.511Z,9.60
2022-08-18T00:28:58.738Z,10.30
2022-08-18T00:30:01.830Z,10.30
2022-08-18T00:31:05.100Z,6.60
2022-08-18T00:32:15.442Z,8.70
2022-08-18T00:33:18.139Z,7.40
2022-08-18T00:34:20.542Z,10.10
2022-08-18T00:35:28.931Z,10.10
2022-08-18T00:36:32.102Z,6.80
2022-08-18T00:37:36.128Z,10.50
2022-08-18T00:38:38.544Z,9.30
2022-08-18T00:39:47.395Z,10.00
2022-08-18T00:40:47.751Z,9.10
2022-08-18T00:41:52.152Z,9.80
2022-08-18T00:42:56.633Z,10.00
2022-08-18T00:43:59.254Z,7.40
2022-08-18T00:45:03.915Z,10.20
2022-08-18T00:47:41.360Z,9.50
2022-08-18T00:48:25.074Z,10.80
2022-08-18T00:49:27.797Z,9.40
2022-08-18T00:50:35.499Z,10.20
2022-08-18T00:53:02.411Z,8.20
2022-08-18T00:55:31.951Z,9.50
2022-08-18T00:56:40.289Z,8.00
2022-08-18T00:57:42.607Z,8.20
2022-08-18T01:00:06.575Z,11.20
2022-08-18T01:01:08.881Z,9.80
2022-08-18T01:02:19.752Z,9.60
2022-08-18T01:03:24.754Z,10.30
2022-08-18T01:04:39.732Z,11.10
2022-08-18T01:07:19.662Z,7.00
2022-08-18T01:08:28.767Z,10.00
2022-08-18T01:09:27.680Z,9.50
2022-08-18T01:10:31.614Z,10.50
2022-08-18T01:11:36.400Z,8.90
2022-08-18T01:12:44.939Z,5.80
2022-08-18T01:13:44.443Z,9.40
2022-08-18T01:14:46.763Z,8.30
2022-08-18T01:15:49.160Z,8.90
2022-08-18T01:16:56.770Z,9.50
2022-08-18T01:17:59.065Z,8.80
2022-08-18T01:19:01.885Z,10.50
2022-08-18T01:20:05.286Z,10.40
2022-08-18T01:21:17.621Z,9.00
2022-08-18T01:22:40.565Z,10.50
2022-08-18T01:23:43.852Z,9.70
2022-08-18T01:24:46.270Z,8.40
2022-08-18T01:25:49.342Z,10.60
2022-08-18T01:26:51.891Z,9.90
2022-08-18T01:27:54.181Z,9.70
2022-08-18T01:29:01.317Z,10.10
2022-08-18T01:30:06.555Z,10.50
2022-08-18T01:31:09.106Z,10.00
2022-08-18T01:32:14.267Z,9.20
2022-08-18T01:33:17.342Z,10.30
2022-08-18T01:34:22.009Z,8.40
2022-08-18T01:35:25.648Z,9.80
2022-08-18T01:36:28.980Z,10.30
2022-08-18T01:37:31.446Z,9.50
2022-08-18T01:38:33.716Z,8.70
2022-08-18T01:41:17.335Z,10.10
2022-08-18T01:41:23.249Z,7.30
2022-08-18T01:41:45.960Z,8.60
2022-08-18T01:42:50.024Z,8.90
2022-08-18T01:43:52.469Z,10.10
2022-08-18T01:44:54.797Z,10.30
2022-08-18T01:45:57.173Z,9.10
2022-08-18T01:46:59.552Z,9.10
2022-08-18T01:48:02.712Z,9.90
2022-08-18T01:49:05.631Z,9.30
2022-08-18T01:50:11.392Z,9.60
2022-08-18T01:51:14.320Z,8.60
2022-08-18T01:52:18.340Z,8.64
2022-08-18T01:53:20.706Z,9.40
2022-08-18T01:54:22.969Z,9.40
2022-08-18T01:55:25.943Z,10.40
2022-08-18T01:56:31.208Z,9.00
2022-08-18T01:57:36.094Z,9.20
2022-08-18T01:58:45.223Z,9.70
2022-08-18T01:59:47.683Z,7.70
2022-08-18T02:00:50.833Z,9.90
2022-08-18T02:01:53.659Z,8.91
2022-08-18T02:03:01.957Z,10.10
2022-08-18T02:04:31.071Z,10.00
2022-08-18T02:05:11.576Z,9.40
2022-08-18T02:06:15.441Z,9.50
2022-08-18T02:07:18.860Z,8.20
2022-08-18T02:08:21.112Z,9.60
2022-08-18T02:09:24.474Z,9.40
2022-08-18T02:10:28.950Z,9.40
2022-08-18T02:11:31.994Z,11.20
2022-08-18T02:12:34.441Z,8.70
2022-08-18T02:13:37.846Z,9.90
2022-08-18T02:14:41.736Z,9.40
2022-08-18T02:15:45.741Z,9.10
2022-08-18T02:16:48.192Z,8.60
2022-08-18T02:17:51.468Z,9.40
2022-08-18T02:18:54.696Z,8.30
2022-08-18T02:19:57.547Z,10.30
2022-08-18T02:21:10.452Z,9.50
2022-08-18T02:22:16.454Z,8.30
2022-08-18T02:23:19.472Z,8.90
2022-08-18T02:24:22.134Z,10.00
2022-08-18T02:25:24.914Z,8.90
2022-08-18T02:26:28.001Z,9.70
2022-08-18T02:27:30.375Z,8.60
2022-08-18T02:28:32.721Z,5.80
2022-08-18T02:29:35.330Z,8.80
2022-08-18T02:30:38.244Z,10.00
2022-08-18T02:31:40.934Z,9.30
2022-08-18T02:32:43.913Z,10.64
2022-08-18T02:33:51.960Z,8.60
2022-08-18T02:34:50.585Z,7.30
2022-08-18T02:35:55.700Z,8.50
2022-08-18T02:36:59.630Z,10.30
2022-08-18T02:38:03.894Z,6.60
2022-08-18T02:39:07.297Z,8.80
2022-08-18T02:40:11.168Z,8.80
2022-08-18T02:41:17.240Z,8.80
2022-08-18T02:42:19.540Z,9.70
2022-08-18T02:43:22.107Z,7.80
2022-08-18T02:44:24.581Z,8.30
2022-08-18T02:45:26.780Z,8.70
2022-08-18T02:46:31.289Z,8.20
2022-08-18T02:47:34.078Z,8.50
2022-08-18T02:48:37.259Z,7.90
2022-08-18T02:49:39.835Z,10.40
2022-08-18T02:50:43.104Z,9.70
2022-08-18T02:51:46.709Z,9.60
2022-08-18T02:52:49.269Z,10.10
2022-08-18T02:53:51.654Z,7.90
2022-08-18T02:54:55.869Z,10.80
2022-08-18T02:57:19.582Z,10.50
2022-08-18T02:58:22.184Z,9.20
2022-08-18T02:59:26.175Z,6.00
2022-08-18T03:00:30.196Z,8.70
2022-08-18T03:01:35.684Z,9.30
2022-08-18T03:02:38.889Z,9.20
2022-08-18T03:03:41.322Z,9.90
2022-08-18T03:04:44.081Z,8.36
2022-08-18T03:05:46.358Z,9.70
2022-08-18T03:06:49.572Z,8.90
2022-08-18T03:07:52.767Z,10.60
2022-08-18T03:08:55.376Z,9.00
2022-08-18T03:09:59.155Z,8.10
2022-08-18T03:11:01.981Z,9.70
2022-08-18T03:12:05.266Z,6.40
2022-08-18T03:13:07.584Z,8.90
2022-08-18T03:14:11.942Z,9.80
2022-08-18T03:15:14.522Z,8.90
2022-08-18T03:16:17.850Z,10.50
2022-08-18T03:17:21.137Z,9.90
2022-08-18T03:18:23.635Z,10.20
2022-08-18T03:19:27.014Z,8.40
2022-08-18T03:20:31.558Z,9.20
2022-08-18T03:21:35.023Z,9.00
2022-08-18T03:22:38.005Z,9.60
2022-08-18T03:23:42.734Z,8.60
2022-08-18T03:24:45.207Z,9.60
2022-08-18T03:25:48.666Z,10.20
2022-08-18T03:26:52.251Z,8.90
2022-08-18T03:27:54.732Z,8.82
2022-08-18T03:28:57.474Z,6.50
2022-08-18T03:30:00.583Z,8.64
2022-08-18T03:31:03.224Z,9.20
2022-08-18T03:32:06.229Z,8.20
2022-08-18T03:33:09.916Z,9.10
2022-08-18T03:34:12.305Z,3.60
2022-08-18T03:35:18.157Z,9.10
2022-08-18T03:36:23.458Z,9.80
2022-08-18T03:37:26.428Z,9.80
2022-08-18T03:38:28.697Z,8.20
2022-08-18T03:39:31.103Z,9.10
2022-08-18T03:40:33.619Z,10.40
2022-08-18T03:41:57.402Z,9.60
2022-08-18T03:42:43.870Z,10.10
2022-08-18T03:43:51.079Z,11.00
2022-08-18T03:44:50.950Z,10.70
2022-08-18T03:45:54.189Z,8.80
2022-08-18T03:46:56.840Z,10.27
2022-08-18T03:47:59.656Z,9.70
2022-08-18T03:49:02.150Z,11.20
2022-08-18T03:50:06.347Z,9.20
2022-08-18T03:51:11.453Z,10.00
2022-08-18T03:52:14.074Z,9.50
2022-08-18T03:53:16.221Z,6.20
2022-08-18T03:54:18.872Z,10.80
2022-08-18T03:55:21.230Z,10.30
2022-08-18T03:56:24.926Z,7.70
2022-08-18T03:57:27.656Z,8.70
2022-08-18T03:58:30.016Z,10.45
2022-08-18T03:59:33.307Z,11.10
2022-08-18T04:00:37.547Z,9.50
2022-08-18T04:01:41.078Z,9.80
2022-08-18T04:02:43.807Z,10.50
2022-08-18T04:03:51.467Z,10.00
2022-08-18T04:04:54.879Z,10.10
2022-08-18T04:05:57.962Z,8.50
2022-08-18T04:07:05.122Z,8.80
2022-08-18T04:08:07.531Z,10.80
2022-08-18T04:09:12.587Z,11.60
2022-08-18T04:10:19.704Z,9.30
2022-08-18T04:11:20.260Z,8.80
2022-08-18T04:12:22.870Z,10.73
2022-08-18T04:13:25.464Z,10.30
2022-08-18T04:14:29.069Z,11.00
2022-08-18T04:15:32.119Z,10.00
2022-08-18T04:16:36.457Z,10.20
2022-08-18T04:18:03.435Z,10.40
2022-08-18T04:18:42.777Z,9.90
2022-08-18T04:19:46.113Z,8.00
2022-08-18T04:20:59.105Z,11.10
2022-08-18T04:21:55.832Z,8.10
2022-08-18T04:22:58.904Z,11.20
2022-08-18T04:24:01.361Z,10.30
2022-08-18T04:25:04.553Z,12.10
2022-08-18T04:26:08.233Z,11.30
2022-08-18T04:27:10.676Z,9.80
2022-08-18T04:28:14.288Z,11.00
2022-08-18T04:29:17.980Z,10.30
2022-08-18T04:30:22.283Z,10.40
2022-08-18T04:31:24.847Z,10.55
2022-08-18T04:32:30.081Z,10.30
2022-08-18T04:33:32.984Z,10.30
2022-08-18T04:34:35.118Z,11.50
2022-08-18T04:35:38.094Z,10.20
2022-08-18T04:36:40.906Z,10.20
2022-08-18T04:37:43.170Z,10.70
2022-08-18T04:38:45.692Z,9.40
2022-08-18T04:39:48.228Z,10.70
2022-08-18T04:40:51.424Z,8.50
2022-08-18T04:41:56.149Z,10.30
2022-08-18T04:42:59.986Z,11.40
2022-08-18T04:44:04.686Z,11.00
2022-08-18T04:45:08.286Z,8.90
2022-08-18T04:46:11.645Z,10.00
2022-08-18T04:47:14.117Z,10.40
2022-08-18T04:48:16.477Z,10.40
2022-08-18T04:49:22.202Z,9.80
2022-08-18T04:50:26.338Z,10.00
2022-08-18T04:52:26.720Z,9.90
2022-08-18T04:52:40.420Z,11.00
2022-08-18T04:53:37.712Z,9.10
2022-08-18T04:54:39.982Z,12.00
2022-08-18T04:57:10.974Z,11.60
2022-08-18T04:58:14.285Z,10.50
2022-08-18T04:59:16.638Z,9.20
2022-08-18T05:00:20.123Z,9.70
2022-08-18T05:01:25.189Z,9.20
2022-08-18T05:02:28.646Z,10.30
2022-08-18T05:03:31.039Z,9.80
2022-08-18T05:04:37.363Z,9.90
2022-08-18T05:05:40.331Z,10.70
2022-08-18T05:06:44.044Z,10.60
2022-08-18T05:07:47.356Z,10.40
2022-08-18T05:08:50.191Z,10.20
2022-08-18T05:09:52.992Z,11.09
2022-08-18T05:11:01.671Z,11.70
2022-08-18T05:12:03.062Z,11.30
2022-08-18T05:13:05.378Z,11.90
2022-08-18T05:14:08.965Z,12.70
2022-08-18T05:15:12.455Z,10.90
2022-08-18T05:16:25.384Z,11.50
2022-08-18T05:17:20.252Z,11.80
2022-08-18T05:18:26.621Z,11.80
2022-08-18T05:19:32.032Z,13.20
2022-08-18T05:20:36.853Z,15.10
2022-08-18T05:21:39.463Z,16.40
2022-08-18T05:22:42.710Z,19.10
2022-08-18T05:23:47.532Z,24.80
2022-08-18T05:24:49.975Z,23.70
2022-08-18T05:25:59.687Z,28.00
2022-08-18T05:27:02.500Z,27.30
2022-08-18T05:28:05.275Z,25.64
2022-08-18T05:29:18.521Z,22.60
2022-08-18T05:30:12.866Z,21.80
2022-08-18T05:31:16.974Z,21.36
2022-08-18T05:32:41.155Z,19.60
2022-08-18T05:33:24.862Z,23.00
2022-08-18T05:34:27.491Z,21.80
2022-08-18T05:35:40.619Z,19.60
2022-08-18T05:36:49.817Z,19.10
2022-08-18T05:38:01.759Z,19.00
2022-08-18T05:39:23.883Z,17.60
2022-08-18T05:40:27.367Z,17.00
2022-08-18T05:42:47.603Z,17.00
2022-08-18T05:44:02.932Z,16.70
2022-08-18T05:46:47.571Z,11.70
2022-08-18T05:47:50.552Z,14.80
2022-08-18T05:48:53.121Z,14.20
2022-08-18T05:49:57.072Z,15.80
2022-08-18T05:51:01.025Z,13.80
2022-08-18T05:53:17.809Z,13.50
2022-08-18T05:54:22.232Z,10.80
2022-08-18T05:55:28.490Z,12.70
2022-08-18T05:56:33.449Z,12.80
2022-08-18T05:58:53.785Z,12.90
2022-08-18T05:59:56.000Z,10.60
2022-08-18T06:05:13.250Z,11.20
2022-08-18T06:06:19.195Z,11.50
2022-08-18T06:08:56.768Z,11.00
2022-08-18T06:09:59.921Z,11.40
2022-08-18T06:11:03.203Z,11.80
2022-08-18T06:13:59.398Z,10.20
2022-08-18T06:16:29.249Z,10.20
2022-08-18T06:17:35.817Z,10.80
2022-08-18T06:20:22.489Z,11.30
2022-08-18T06:21:39.380Z,10.80
2022-08-18T06:24:12.610Z,11.40
2022-08-18T06:25:19.788Z,11.60
2022-08-18T06:26:46.397Z,10.60
2022-08-18T06:29:48.004Z,11.00
2022-08-18T06:31:03.852Z,10.30
2022-08-18T06:32:10.108Z,12.00
2022-08-18T06:33:28.955Z,9.30
2022-08-18T06:34:37.724Z,11.00
2022-08-18T06:35:52.045Z,10.50
2022-08-18T06:37:00.785Z,8.90
2022-08-18T06:38:18.519Z,11.20
2022-08-18T06:39:30.828Z,11.60
2022-08-18T06:40:33.407Z,10.90
2022-08-18T06:41:47.504Z,11.30
2022-08-18T06:42:52.164Z,11.60
2022-08-18T06:44:03.744Z,10.10
2022-08-18T06:45:11.617Z,12.60
2022-08-18T06:46:18.647Z,7.40
2022-08-18T06:47:55.061Z,10.20
2022-08-18T06:49:01.237Z,11.00
2022-08-18T06:51:26.554Z,10.10
2022-08-18T06:52:31.811Z,10.90
2022-08-18T06:53:57.093Z,10.20
2022-08-18T06:56:27.067Z,11.40
2022-08-18T07:57:35.452Z,10.20
2022-08-18T07:58:49.143Z,10.60
2022-08-18T08:01:38.909Z,10.40
2022-08-18T08:02:57.428Z,10.70
2022-08-18T08:04:25.435Z,10.10
2022-08-18T08:05:51.107Z,10.10
2022-08-18T08:08:19.633Z,8.30
2022-08-18T08:11:16.394Z,10.20
2022-08-18T08:12:25.287Z,9.80
2022-08-18T08:13:57.596Z,10.40
2022-08-18T08:14:58.322Z,9.20
2022-08-18T08:16:19.878Z,7.10
2022-08-18T08:17:32.235Z,10.40
2022-08-18T08:18:47.498Z,9.60
2022-08-18T08:21:32.354Z,9.70
2022-08-18T08:22:58.091Z,8.80
2022-08-18T08:24:19.304Z,8.20
2022-08-18T08:25:45.635Z,10.10
2022-08-18T08:26:54.415Z,7.80
2022-08-18T08:28:26.476Z,9.40
2022-08-18T08:29:39.273Z,8.40
2022-08-18T08:32:12.288Z,9.10
2022-08-18T08:33:21.838Z,8.70
2022-08-18T08:34:51.302Z,9.50
2022-08-18T08:36:08.043Z,9.60
2022-08-18T08:37:13.079Z,5.10
2022-08-18T08:38:40.284Z,8.80
2022-08-18T08:39:42.822Z,9.20
2022-08-18T08:40:52.621Z,10.20
2022-08-18T08:43:19.143Z,7.30
2022-08-18T08:44:26.794Z,8.30
2022-08-18T08:45:34.251Z,9.10
2022-08-18T08:48:09.034Z,7.00
2022-08-18T08:49:32.354Z,9.40
2022-08-18T08:51:57.418Z,8.70
2022-08-18T08:53:12.519Z,7.70
2022-08-18T08:54:26.425Z,8.40
2022-08-18T08:55:37.242Z,8.20
2022-08-18T08:56:46.373Z,8.70
2022-08-18T08:58:08.755Z,9.30
2022-08-18T08:59:14.235Z,8.80
2022-08-18T09:00:18.690Z,8.00
2022-08-18T09:01:33.760Z,7.70
2022-08-18T09:02:57.128Z,8.10
2022-08-18T09:03:56.819Z,6.60
2022-08-18T09:05:14.890Z,10.00
2022-08-18T09:06:41.149Z,7.00
2022-08-18T09:08:08.825Z,7.80
2022-08-18T09:10:47.426Z,8.30
2022-08-18T09:12:17.559Z,6.70
2022-08-18T09:13:44.936Z,8.30
2022-08-18T09:15:11.431Z,8.30
2022-08-18T09:16:21.750Z,6.80
2022-08-18T09:17:57.637Z,8.40
2022-08-18T09:21:17.831Z,7.20
2022-08-18T09:24:20.296Z,8.40
2022-08-18T09:27:25.086Z,8.90
2022-08-18T09:28:31.172Z,7.50
2022-08-18T09:31:09.253Z,9.00
2022-08-18T09:32:22.626Z,8.30
2022-08-18T09:33:34.496Z,9.20
2022-08-18T09:35:00.176Z,7.50
2022-08-18T09:36:10.612Z,8.30
2022-08-18T09:38:39.977Z,8.50
2022-08-18T09:41:02.592Z,8.70
2022-08-18T09:42:01.576Z,7.80
2022-08-18T09:43:15.492Z,7.80
2022-08-18T09:44:46.306Z,7.80
2022-08-18T09:47:08.457Z,8.20
2022-08-18T09:50:59.946Z,6.90
2022-08-18T09:53:52.759Z,8.60
2022-08-18T09:55:04.580Z,8.50
2022-08-18T09:56:08.488Z,4.40
2022-08-18T09:57:19.553Z,9.00
2022-08-18T09:58:29.343Z,7.60
2022-08-18T10:01:22.804Z,8.20
2022-08-18T10:04:34.547Z,7.10
2022-08-18T10:05:37.185Z,7.50
2022-08-18T10:06:43.169Z,8.00
2022-08-18T10:07:58.305Z,5.50
2022-08-18T10:09:26.927Z,8.00
2022-08-18T10:12:22.170Z,7.40
2022-08-18T10:13:38.629Z,7.70
2022-08-18T10:16:18.962Z,8.70
2022-08-18T10:19:00.519Z,8.40
2022-08-18T10:22:58.004Z,9.10
2022-08-18T10:25:30.393Z,5.30
2022-08-18T10:26:38.407Z,9.10
2022-08-18T10:27:47.886Z,8.10
2022-08-18T10:28:54.432Z,8.40
2022-08-18T10:29:57.853Z,8.40
2022-08-18T10:31:06.282Z,8.80
2022-08-18T10:32:15.414Z,9.00
2022-08-18T10:35:56.527Z,7.90
2022-08-18T10:37:00.211Z,7.40
2022-08-18T10:38:24.454Z,9.20
2022-08-18T10:39:42.029Z,7.50
2022-08-18T10:43:57.459Z,7.30
2022-08-18T10:44:57.794Z,7.10
2022-08-18T10:46:25.060Z,8.10
2022-08-18T10:47:12.014Z,6.00
2022-08-18T10:51:13.413Z,7.10
2022-08-18T10:55:48.197Z,8.50
2022-08-18T10:56:48.979Z,6.30
2022-08-18T10:58:28.195Z,6.80
2022-08-18T10:59:49.071Z,7.40
2022-08-18T11:00:44.820Z,8.40
2022-08-18T11:02:16.578Z,7.50
2022-08-18T11:04:47.156Z,8.10
2022-08-18T11:07:20.697Z,8.10
2022-08-18T11:09:51.033Z,8.50
2022-08-18T11:12:13.064Z,6.70
2022-08-18T11:13:52.062Z,8.80
2022-08-18T11:19:42.077Z,8.60
2022-08-18T11:20:47.428Z,8.90
2022-08-18T11:21:51.600Z,7.60
2022-08-18T11:24:20.818Z,7.30
2022-08-18T11:25:34.042Z,7.20
2022-08-18T11:29:34.419Z,7.10
2022-08-18T11:30:37.279Z,8.10
2022-08-18T11:33:04.189Z,8.00
2022-08-18T11:35:23.177Z,9.20
2022-08-18T11:36:29.899Z,8.60
2022-08-18T11:37:52.462Z,6.90
2022-08-18T11:38:55.098Z,9.70
2022-08-18T11:39:58.988Z,8.30
2022-08-18T11:41:20.405Z,8.50
2022-08-18T11:42:33.448Z,8.00
2022-08-18T11:43:41.260Z,9.30
2022-08-18T11:44:42.487Z,9.20
2022-08-18T11:45:49.318Z,8.70
2022-08-18T11:46:55.833Z,9.40
2022-08-18T11:48:11.787Z,7.10
2022-08-18T11:49:30.604Z,8.50
2022-08-18T11:50:39.111Z,8.00
2022-08-18T11:51:55.447Z,7.80
2022-08-18T11:53:14.558Z,8.20
2022-08-18T11:54:21.123Z,7.60
2022-08-18T11:55:30.376Z,8.40
2022-08-18T11:56:35.718Z,7.40
2022-08-18T11:57:51.130Z,9.60
2022-08-18T11:59:11.564Z,7.10
2022-08-18T12:00:43.134Z,8.10
2022-08-18T12:01:52.279Z,7.20
2022-08-18T12:03:09.450Z,7.90
2022-08-18T12:04:18.930Z,7.70
2022-08-18T12:05:21.487Z,8.90
2022-08-18T12:06:30.520Z,7.18
2022-08-18T12:07:34.300Z,8.10
2022-08-18T12:10:26.119Z,8.10
2022-08-18T12:11:31.577Z,9.70
2022-08-18T12:12:35.021Z,9.00
2022-08-18T12:13:44.172Z,7.50
2022-08-18T12:16:21.344Z,8.80
2022-08-18T12:17:24.782Z,7.80
2022-08-18T12:18:29.978Z,6.40
2022-08-18T12:19:34.342Z,7.20
2022-08-18T12:20:38.497Z,8.70
2022-08-18T12:21:53.506Z,8.20
2022-08-18T12:22:57.257Z,7.70
2022-08-18T12:23:59.614Z,8.30
2022-08-18T12:25:04.267Z,8.60
2022-08-18T12:26:18.767Z,7.40
2022-08-18T12:28:22.205Z,7.50
2022-08-18T12:29:32.616Z,8.10
2022-08-18T12:30:31.807Z,7.90
2022-08-18T12:31:42.410Z,7.10
2022-08-18T12:32:48.939Z,8.50
2022-08-18T12:33:48.253Z,7.80
2022-08-18T12:34:49.014Z,8.00
2022-08-18T12:35:53.377Z,7.00
2022-08-18T12:36:57.592Z,8.10
2022-08-18T12:38:05.005Z,8.20
2022-08-18T12:39:24.452Z,7.60
2022-08-18T12:40:28.326Z,7.70
2022-08-18T12:41:30.981Z,7.20
2022-08-18T12:42:34.869Z,8.60
2022-08-18T12:43:38.922Z,8.10
2022-08-18T12:44:42.245Z,7.80
2022-08-18T12:45:47.280Z,7.90
2022-08-18T12:46:50.146Z,7.40
2022-08-18T12:47:53.183Z,8.00
2022-08-18T12:48:55.440Z,8.00
2022-08-18T12:49:58.804Z,6.80
2022-08-18T12:51:05.897Z,6.30
2022-08-18T12:52:07.789Z,8.70
2022-08-18T12:53:12.098Z,7.60
2022-08-18T12:54:14.542Z,7.90
2022-08-18T12:57:52.512Z,6.70
2022-08-18T12:58:40.910Z,7.70
2022-08-18T12:59:43.969Z,7.30
2022-08-18T13:00:48.340Z,7.70
2022-08-18T13:01:58.348Z,7.30
2022-08-18T13:02:57.150Z,6.30
2022-08-18T13:04:13.280Z,7.70
2022-08-18T13:05:06.544Z,4.80
2022-08-18T13:06:09.808Z,7.10
2022-08-18T13:07:13.727Z,5.40
2022-08-18T13:08:27.709Z,5.40
2022-08-18T13:09:34.658Z,6.20
2022-08-18T13:10:45.579Z,7.00
2022-08-18T13:11:34.948Z,7.30
2022-08-18T13:12:38.170Z,7.60
2022-08-18T13:13:43.185Z,7.20
2022-08-18T13:14:46.699Z,7.10
2022-08-18T13:15:58.068Z,6.80
2022-08-18T13:16:55.196Z,6.30
2022-08-18T13:17:57.830Z,7.30
2022-08-18T13:19:01.232Z,7.00
2022-08-18T13:20:09.496Z,7.00
2022-08-18T13:21:16.619Z,7.00
2022-08-18T13:22:19.599Z,6.50
2022-08-18T13:23:25.146Z,6.50
2022-08-18T13:24:28.690Z,7.40
2022-08-18T13:25:33.055Z,7.20
2022-08-18T13:26:38.038Z,7.10
2022-08-18T13:27:43.521Z,7.80
2022-08-18T13:28:50.871Z,7.00
2022-08-18T13:29:51.089Z,6.50
2022-08-18T13:30:54.944Z,7.10
2022-08-18T13:31:57.849Z,6.40
2022-08-18T13:33:05.427Z,5.20
2022-08-18T13:34:05.437Z,1.40
2022-08-18T13:35:13.460Z,8.00
2022-08-18T13:36:18.470Z,7.00
2022-08-18T13:37:21.613Z,7.20
2022-08-18T13:38:26.040Z,7.30
2022-08-18T13:39:33.783Z,7.40
2022-08-18T13:40:33.389Z,6.60
2022-08-18T13:41:37.723Z,7.40
2022-08-18T13:42:50.754Z,7.10
2022-08-18T13:43:52.322Z,7.00
2022-08-18T13:45:22.762Z,7.80
2022-08-18T13:46:05.184Z,7.40
2022-08-18T13:47:09.083Z,6.70
2022-08-18T13:48:11.649Z,7.50
2022-08-18T13:49:18.585Z,7.80
2022-08-18T13:50:29.570Z,7.10
2022-08-18T13:51:30.313Z,7.80
2022-08-18T13:52:34.653Z,6.70
2022-08-18T13:53:50.466Z,3.50
2022-08-18T13:54:42.848Z,6.30
2022-08-18T13:55:47.037Z,8.10
2022-08-18T13:56:52.210Z,6.60
2022-08-18T13:57:55.228Z,7.30
2022-08-18T13:58:59.282Z,7.40
2022-08-18T14:00:02.355Z,6.73
2022-08-18T14:02:12.319Z,7.10
2022-08-18T14:03:30.748Z,5.20
2022-08-18T14:04:20.836Z,6.90
2022-08-18T14:05:36.649Z,8.30
2022-08-18T14:06:29.505Z,4.20
2022-08-18T14:07:31.925Z,7.00
2022-08-18T14:08:36.097Z,7.30
2022-08-18T14:09:40.512Z,7.40
2022-08-18T14:10:43.137Z,7.09
2022-08-18T14:11:45.414Z,6.70
2022-08-18T14:12:52.367Z,5.30
2022-08-18T14:13:55.121Z,8.00
2022-08-18T14:14:59.150Z,7.82
2022-08-18T14:16:02.905Z,7.80
2022-08-18T14:17:05.819Z,6.10
2022-08-18T14:18:09.586Z,6.20
2022-08-18T14:19:14.875Z,7.00
2022-08-18T14:20:21.551Z,6.20
2022-08-18T14:21:25.645Z,6.00
2022-08-18T14:22:29.687Z,6.10
2022-08-18T14:23:32.466Z,6.80
2022-08-18T14:24:36.813Z,7.30
2022-08-18T14:25:39.695Z,7.70
2022-08-18T14:26:42.834Z,6.60
2022-08-18T14:27:56.072Z,7.30
2022-08-18T14:28:52.620Z,7.60
2022-08-18T14:29:55.862Z,6.10
2022-08-18T14:30:59.747Z,7.50
2022-08-18T14:32:02.530Z,7.80
2022-08-18T14:33:06.601Z,8.27
2022-08-18T14:34:11.046Z,7.10
2022-08-18T14:35:34.054Z,6.80
2022-08-18T14:36:29.922Z,6.50
2022-08-18T14:37:27.178Z,7.00
2022-08-18T14:38:29.679Z,6.00
2022-08-18T14:39:33.725Z,8.10
2022-08-18T14:40:41.856Z,7.70
2022-08-18T14:41:54.891Z,8.70
2022-08-18T14:42:55.002Z,6.70
2022-08-18T14:44:11.985Z,8.20
2022-08-18T14:46:10.656Z,7.90
2022-08-18T14:47:14.223Z,7.00
2022-08-18T14:48:20.238Z,7.60
2022-08-18T14:49:28.088Z,8.30
2022-08-18T14:50:28.948Z,6.90
2022-08-18T14:51:35.607Z,5.60
2022-08-18T14:52:40.153Z,7.40
2022-08-18T14:53:42.958Z,7.40
2022-08-18T14:54:51.115Z,5.80
2022-08-18T14:55:51.626Z,7.20
2022-08-18T14:56:54.539Z,8.50
2022-08-18T14:57:59.592Z,6.90
2022-08-18T14:59:04.679Z,7.00
2022-08-18T15:00:12.672Z,7.10
2022-08-18T15:01:16.092Z,7.30
2022-08-18T15:02:20.354Z,7.50
2022-08-18T15:03:30.878Z,7.20
2022-08-18T15:04:28.878Z,6.50
2022-08-18T15:05:33.841Z,7.60
2022-08-18T15:06:41.225Z,7.20
2022-08-18T15:07:44.415Z,7.00
2022-08-18T15:08:48.564Z,6.70
2022-08-18T15:09:51.283Z,5.50
2022-08-18T15:10:57.195Z,3.20
2022-08-18T15:12:00.874Z,5.20
2022-08-18T15:13:05.509Z,6.50
2022-08-18T15:14:08.594Z,7.00
2022-08-18T15:15:17.694Z,6.20
2022-08-18T15:16:18.315Z,7.60
2022-08-18T15:17:21.962Z,5.70
2022-08-18T15:18:25.539Z,5.70
2022-08-18T15:19:59.193Z,6.90
2022-08-18T15:20:35.631Z,6.00
2022-08-18T15:21:39.122Z,6.80
2022-08-18T15:22:43.188Z,6.60
2022-08-18T15:23:45.744Z,6.10
2022-08-18T15:24:49.647Z,6.70
2022-08-18T15:25:53.259Z,6.60
2022-08-18T15:26:57.518Z,7.60
2022-08-18T15:28:00.327Z,7.20
2022-08-18T15:29:07.867Z,6.50
2022-08-18T15:32:27.670Z,6.20
2022-08-18T15:33:32.366Z,5.30
2022-08-18T15:34:47.342Z,5.90
2022-08-18T15:35:44.426Z,5.10
2022-08-18T15:36:48.412Z,6.20
2022-08-18T15:37:54.270Z,6.10
2022-08-18T15:40:41.225Z,5.20
2022-08-18T15:41:44.207Z,7.00
2022-08-18T15:42:46.150Z,6.80
2022-08-18T15:43:49.467Z,6.90
2022-08-18T15:44:53.664Z,6.70
2022-08-18T15:45:58.648Z,5.70
2022-08-18T15:47:02.064Z,5.30
2022-08-18T15:48:04.669Z,6.70
2022-08-18T15:49:15.049Z,7.10
2022-08-18T15:50:21.666Z,6.70
2022-08-18T15:51:19.134Z,6.30
2022-08-18T15:52:23.404Z,6.60
2022-08-18T15:53:29.713Z,6.20
2022-08-18T15:54:30.586Z,5.60
2022-08-18T15:55:37.445Z,7.70
2022-08-18T15:56:39.544Z,6.20
2022-08-18T15:57:44.101Z,5.80
2022-08-18T15:58:46.959Z,5.64
2022-08-18T15:59:50.306Z,3.73
2022-08-18T16:00:54.186Z,6.60
2022-08-18T16:01:57.567Z,6.50
2022-08-18T16:04:16.054Z,5.50
2022-08-18T16:05:20.046Z,7.40
2022-08-18T16:06:27.694Z,6.80
2022-08-18T16:07:41.280Z,5.90
2022-08-18T16:08:34.664Z,6.20
2022-08-18T16:09:37.893Z,3.90
2022-08-18T16:10:40.746Z,5.80
2022-08-18T16:11:43.230Z,5.70
2022-08-18T16:12:47.376Z,5.70
2022-08-18T16:13:51.236Z,5.30
2022-08-18T16:14:55.367Z,6.20
2022-08-18T16:15:58.308Z,6.00
2022-08-18T16:17:06.084Z,5.10
2022-08-18T16:18:06.208Z,6.30
2022-08-18T16:19:08.428Z,7.36
2022-08-18T16:20:13.504Z,6.70
2022-08-18T16:21:20.774Z,7.00
2022-08-18T16:22:24.877Z,7.40
2022-08-18T16:23:28.675Z,6.60
2022-08-18T16:24:31.090Z,6.50
2022-08-18T16:25:33.431Z,6.50
2022-08-18T16:26:36.937Z,7.20
2022-08-18T16:27:39.355Z,6.90
2022-08-18T16:28:43.586Z,5.30
2022-08-18T16:29:46.104Z,6.20
2022-08-18T16:30:48.781Z,7.45
2022-08-18T16:31:52.282Z,6.60
2022-08-18T16:32:56.216Z,6.90
2022-08-18T16:33:58.580Z,6.50
2022-08-18T16:35:00.910Z,6.00
2022-08-18T16:36:05.175Z,7.00
2022-08-18T16:37:07.800Z,5.90
2022-08-18T16:38:10.916Z,6.50
2022-08-18T16:39:13.426Z,6.20
2022-08-18T16:40:18.434Z,5.90
2022-08-18T16:41:20.943Z,6.30
2022-08-18T16:42:23.441Z,5.70
2022-08-18T16:43:25.848Z,6.60
2022-08-18T16:44:28.401Z,6.70
2022-08-18T16:45:30.773Z,6.60
2022-08-18T16:46:35.460Z,5.10
2022-08-18T16:47:39.023Z,6.30
2022-08-18T16:48:41.671Z,5.30
2022-08-18T16:49:47.284Z,6.10
2022-08-18T16:50:50.461Z,6.20
2022-08-18T16:51:52.802Z,6.45
2022-08-18T16:52:56.065Z,6.50
2022-08-18T16:53:59.293Z,6.90
2022-08-18T16:55:03.232Z,6.90
2022-08-18T16:56:11.278Z,6.40
2022-08-18T16:57:14.813Z,5.10
2022-08-18T16:58:17.016Z,6.10
2022-08-18T16:59:19.304Z,5.10
2022-08-18T17:00:24.100Z,6.20
2022-08-18T17:01:26.736Z,5.50
2022-08-18T17:02:31.626Z,6.80
2022-08-18T17:03:34.583Z,7.10
2022-08-18T17:04:36.726Z,6.10
2022-08-18T17:05:39.207Z,6.60
2022-08-18T17:06:48.007Z,6.80
2022-08-18T17:07:47.206Z,7.00
2022-08-18T17:08:49.595Z,7.20
2022-08-18T17:09:53.054Z,6.30
2022-08-18T17:10:55.646Z,7.20
2022-08-18T17:11:58.293Z,6.70
2022-08-18T17:13:06.412Z,7.00
2022-08-18T17:14:06.602Z,5.90
2022-08-18T17:15:10.824Z,7.30
2022-08-18T17:16:15.524Z,7.30
2022-08-18T17:17:19.109Z,7.00
2022-08-18T17:18:21.887Z,6.70
2022-08-18T17:20:38.450Z,7.40
2022-08-18T17:21:40.730Z,6.80
2022-08-18T17:22:43.569Z,6.70
2022-08-18T17:23:46.469Z,6.60
2022-08-18T17:24:50.571Z,7.09
2022-08-18T17:25:53.000Z,2.10
2022-08-18T17:27:11.806Z,8.80
2022-08-18T17:28:13.801Z,7.40
2022-08-18T17:29:30.495Z,7.00
2022-08-18T17:30:35.077Z,3.70